sensor_id;sensor_type;location;lat;lon;timestamp;P1;P2;P0
55076;PMS7003;40971;44.702;11.030;2023-11-19T00:06:55;26.80;26.80;21.40
55076;PMS7003;40971;44.702;11.030;2023-11-19T00:16:59;30.80;30.80;21.00
55076;PMS7003;40971;44.702;11.030;2023-11-19T00:27:00;31.00;31.00;25.00
55076;PMS7003;40971;44.702;11.030;2023-11-19T00:37:01;29.33;29.33;22.00
55076;PMS7003;40971;44.702;11.030;2023-11-19T00:47:05;33.33;33.33;25.00
55076;PMS7003;40971;44.702;11.030;2023-11-19T00:57:05;34.00;34.00;28.00
55076;PMS7003;40971;44.702;11.030;2023-11-19T01:07:07;30.67;29.67;21.67
55076;PMS7003;40971;44.702;11.030;2023-11-19T01:17:10;30.33;30.33;25.00
55076;PMS7003;40971;44.702;11.030;2023-11-19T01:27:12;36.33;36.33;27.00
55076;PMS7003;40971;44.702;11.030;2023-11-19T01:37:13;32.00;32.00;24.50
55076;PMS7003;40971;44.702;11.030;2023-11-19T01:47:15;27.00;27.00;21.20
55076;PMS7003;40971;44.702;11.030;2023-11-19T01:57:18;39.40;39.40;29.00
55076;PMS7003;40971;44.702;11.030;2023-11-19T02:07:21;36.00;36.00;27.00
55076;PMS7003;40971;44.702;11.030;2023-11-19T02:17:29;41.75;41.75;29.75
55076;PMS7003;40971;44.702;11.030;2023-11-19T02:37:56;35.00;35.00;27.50
55076;PMS7003;40971;44.702;11.030;2023-11-19T02:47:59;37.00;37.00;28.50
55076;PMS7003;40971;44.702;11.030;2023-11-19T02:58:03;35.40;34.40;27.60
55076;PMS7003;40971;44.702;11.030;2023-11-19T03:08:21;45.60;41.20;27.80
55076;PMS7003;40971;44.702;11.030;2023-11-19T03:18:23;33.00;33.00;27.40
55076;PMS7003;40971;44.702;11.030;2023-11-19T03:28:24;31.00;31.00;26.00
55076;PMS7003;40971;44.702;11.030;2023-11-19T03:38:25;36.00;36.00;30.00
55076;PMS7003;40971;44.702;11.030;2023-11-19T03:48:26;36.00;36.00;27.00
55076;PMS7003;40971;44.702;11.030;2023-11-19T03:58:26;38.00;36.50;27.00
55076;PMS7003;40971;44.702;11.030;2023-11-19T04:08:28;38.67;36.00;29.33
55076;PMS7003;40971;44.702;11.030;2023-11-19T04:18:30;33.00;33.00;27.00
55076;PMS7003;40971;44.702;11.030;2023-11-19T04:28:33;32.20;31.80;27.20
55076;PMS7003;40971;44.702;11.030;2023-11-19T04:38:34;36.67;36.67;28.00
55076;PMS7003;40971;44.702;11.030;2023-11-19T04:48:36;37.00;37.00;28.00
55076;PMS7003;40971;44.702;11.030;2023-11-19T04:58:39;37.40;36.60;30.00
55076;PMS7003;40971;44.702;11.030;2023-11-19T05:08:39;38.00;36.50;27.50
55076;PMS7003;40971;44.702;11.030;2023-11-19T05:18:41;33.67;33.67;27.00
55076;PMS7003;40971;44.702;11.030;2023-11-19T05:28:43;30.20;30.20;24.40
55076;PMS7003;40971;44.702;11.030;2023-11-19T05:38:44;36.00;36.00;26.33
55076;PMS7003;40971;44.702;11.030;2023-11-19T05:48:46;36.00;36.00;27.00
55076;PMS7003;40971;44.702;11.030;2023-11-19T05:58:48;24.00;24.00;21.00
55076;PMS7003;40971;44.702;11.030;2023-11-19T06:08:50;33.80;33.80;25.60
55076;PMS7003;40971;44.702;11.030;2023-11-19T06:18:53;31.80;31.80;24.00
55076;PMS7003;40971;44.702;11.030;2023-11-19T06:28:57;29.38;29.38;23.50
55076;PMS7003;40971;44.702;11.030;2023-11-19T06:38:58;31.00;31.00;25.00
55076;PMS7003;40971;44.702;11.030;2023-11-19T06:49:02;36.00;36.00;28.63
55076;PMS7003;40971;44.702;11.030;2023-11-19T06:59:04;34.00;34.00;27.60
55076;PMS7003;40971;44.702;11.030;2023-11-19T07:09:05;36.00;36.00;30.00
55076;PMS7003;40971;44.702;11.030;2023-11-19T07:19:13;31.00;31.00;25.00
55076;PMS7003;40971;44.702;11.030;2023-11-19T07:29:15;39.00;37.00;30.00
55076;PMS7003;40971;44.702;11.030;2023-11-19T07:39:17;34.60;34.60;27.20
55076;PMS7003;40971;44.702;11.030;2023-11-19T07:49:19;30.33;30.33;25.00
55076;PMS7003;40971;44.702;11.030;2023-11-19T07:59:20;36.20;36.20;28.20
55076;PMS7003;40971;44.702;11.030;2023-11-19T08:09:22;23.33;23.33;19.00
55076;PMS7003;40971;44.702;11.030;2023-11-19T08:19:25;28.40;28.40;25.00
55076;PMS7003;40971;44.702;11.030;2023-11-19T08:29:27;15.60;15.60;13.00
55076;PMS7003;40971;44.702;11.030;2023-11-19T08:39:28;18.00;18.00;13.00
55076;PMS7003;40971;44.702;11.030;2023-11-19T08:49:31;12.50;12.50;10.00
55076;PMS7003;40971;44.702;11.030;2023-11-19T08:59:32;15.33;15.33;10.00
55076;PMS7003;40971;44.702;11.030;2023-11-19T09:09:33;12.00;12.00;10.00
55076;PMS7003;40971;44.702;11.030;2023-11-19T09:19:38;11.67;10.67;10.00
55076;PMS7003;40971;44.702;11.030;2023-11-19T09:29:39;16.00;16.00;12.00
55076;PMS7003;40971;44.702;11.030;2023-11-19T09:39:43;18.71;18.71;16.29
55076;PMS7003;40971;44.702;11.030;2023-11-19T09:49:45;13.33;13.33;11.67
55076;PMS7003;40971;44.702;11.030;2023-11-19T09:59:48;10.00;10.00;9.00
55076;PMS7003;40971;44.702;11.030;2023-11-19T10:09:53;15.43;15.43;12.14
55076;PMS7003;40971;44.702;11.030;2023-11-19T10:19:55;15.33;15.33;12.67
55076;PMS7003;40971;44.702;11.030;2023-11-19T10:29:59;11.00;11.00;8.00
55076;PMS7003;40971;44.702;11.030;2023-11-19T10:40:00;14.00;14.00;11.00
55076;PMS7003;40971;44.702;11.030;2023-11-19T10:50:03;11.33;11.33;10.00
55076;PMS7003;40971;44.702;11.030;2023-11-19T11:00:06;13.00;13.00;10.50
55076;PMS7003;40971;44.702;11.030;2023-11-19T11:10:16;10.67;10.67;8.33
55076;PMS7003;40971;44.702;11.030;2023-11-19T11:20:21;13.14;13.14;11.14
55076;PMS7003;40971;44.702;11.030;2023-11-19T11:40:30;12.00;12.00;11.00
55076;PMS7003;40971;44.702;11.030;2023-11-19T11:50:33;16.33;16.33;13.67
55076;PMS7003;40971;44.702;11.030;2023-11-19T12:00:39;16.43;16.43;12.43
55076;PMS7003;40971;44.702;11.030;2023-11-19T12:10:49;17.00;17.00;13.67
55076;PMS7003;40971;44.702;11.030;2023-11-19T12:20:53;21.67;21.67;16.33
55076;PMS7003;40971;44.702;11.030;2023-11-19T12:31:06;18.33;18.33;15.33
55076;PMS7003;40971;44.702;11.030;2023-11-19T12:41:12;20.00;20.00;14.67
55076;PMS7003;40971;44.702;11.030;2023-11-19T12:51:15;16.60;16.60;13.80
55076;PMS7003;40971;44.702;11.030;2023-11-19T13:01:18;15.29;15.29;11.43
55076;PMS7003;40971;44.702;11.030;2023-11-19T13:11:31;16.00;16.00;11.00
55076;PMS7003;40971;44.702;11.030;2023-11-19T13:21:35;11.17;11.17;8.00
55076;PMS7003;40971;44.702;11.030;2023-11-19T13:31:40;11.71;11.71;8.71
55076;PMS7003;40971;44.702;11.030;2023-11-19T13:41:42;13.00;13.00;10.00
55076;PMS7003;40971;44.702;11.030;2023-11-19T13:51:45;15.33;15.00;11.33
55076;PMS7003;40971;44.702;11.030;2023-11-19T14:01:48;13.57;13.57;11.29
55076;PMS7003;40971;44.702;11.030;2023-11-19T14:11:52;13.29;13.29;10.14
55076;PMS7003;40971;44.702;11.030;2023-11-19T14:21:53;12.00;12.00;10.00
55076;PMS7003;40971;44.702;11.030;2023-11-19T14:31:55;14.33;14.33;11.00
55076;PMS7003;40971;44.702;11.030;2023-11-19T14:41:59;12.29;12.29;10.29
55076;PMS7003;40971;44.702;11.030;2023-11-19T14:52:05;18.60;18.60;16.40
55076;PMS7003;40971;44.702;11.030;2023-11-19T15:02:08;18.43;18.43;13.71
55076;PMS7003;40971;44.702;11.030;2023-11-19T15:12:12;17.14;17.14;12.71
55076;PMS7003;40971;44.702;11.030;2023-11-19T15:22:13;19.67;19.67;16.00
55076;PMS7003;40971;44.702;11.030;2023-11-19T15:32:16;16.00;16.00;12.14
55076;PMS7003;40971;44.702;11.030;2023-11-19T15:42:19;18.33;18.33;13.33
55076;PMS7003;40971;44.702;11.030;2023-11-19T15:52:20;19.33;19.33;13.00
55076;PMS7003;40971;44.702;11.030;2023-11-19T16:02:22;21.40;21.40;16.80
55076;PMS7003;40971;44.702;11.030;2023-11-19T16:12:26;18.71;18.71;15.43
55076;PMS7003;40971;44.702;11.030;2023-11-19T16:22:27;22.00;22.00;16.67
55076;PMS7003;40971;44.702;11.030;2023-11-19T16:32:28;24.67;24.67;19.00
55076;PMS7003;40971;44.702;11.030;2023-11-19T16:42:29;19.00;19.00;14.33
55076;PMS7003;40971;44.702;11.030;2023-11-19T16:52:31;22.67;22.67;18.67
55076;PMS7003;40971;44.702;11.030;2023-11-19T17:02:33;23.67;23.67;19.00
55076;PMS7003;40971;44.702;11.030;2023-11-19T17:12:34;24.00;24.00;18.33
55076;PMS7003;40971;44.702;11.030;2023-11-19T17:22:39;31.25;31.13;21.88
55076;PMS7003;40971;44.702;11.030;2023-11-19T17:32:42;27.67;27.67;21.67
55076;PMS7003;40971;44.702;11.030;2023-11-19T17:42:43;28.00;28.00;20.33
55076;PMS7003;40971;44.702;11.030;2023-11-19T17:52:46;24.60;24.60;19.00
55076;PMS7003;40971;44.702;11.030;2023-11-19T18:02:48;20.33;20.33;16.00
55076;PMS7003;40971;44.702;11.030;2023-11-19T18:12:51;27.00;27.00;19.00
55076;PMS7003;40971;44.702;11.030;2023-11-19T18:22:52;31.67;31.67;21.00
55076;PMS7003;40971;44.702;11.030;2023-11-19T18:32:55;34.67;33.33;24.00
55076;PMS7003;40971;44.702;11.030;2023-11-19T18:42:57;30.67;30.67;22.00
55076;PMS7003;40971;44.702;11.030;2023-11-19T18:53:01;28.38;28.38;21.50
55076;PMS7003;40971;44.702;11.030;2023-11-19T19:03:04;31.00;31.00;25.67
55076;PMS7003;40971;44.702;11.030;2023-11-19T19:13:07;42.80;42.80;30.80
55076;PMS7003;40971;44.702;11.030;2023-11-19T19:23:10;36.60;36.60;27.20
55076;PMS7003;40971;44.702;11.030;2023-11-19T19:33:12;35.33;35.33;27.67
55076;PMS7003;40971;44.702;11.030;2023-11-19T19:43:14;33.00;33.00;24.67
55076;PMS7003;40971;44.702;11.030;2023-11-19T19:53:18;37.00;37.00;27.50
55076;PMS7003;40971;44.702;11.030;2023-11-19T20:03:19;38.00;37.33;27.33
55076;PMS7003;40971;44.702;11.030;2023-11-19T20:13:22;36.67;35.33;26.33
55076;PMS7003;40971;44.702;11.030;2023-11-19T20:23:26;35.50;35.50;26.63
55076;PMS7003;40971;44.702;11.030;2023-11-19T20:33:31;49.44;47.33;33.33
55076;PMS7003;40971;44.702;11.030;2023-11-19T20:43:35;36.00;36.00;25.00
55076;PMS7003;40971;44.702;11.030;2023-11-19T20:53:37;48.33;46.67;32.33
55076;PMS7003;40971;44.702;11.030;2023-11-19T21:03:39;45.50;45.00;34.00
55076;PMS7003;40971;44.702;11.030;2023-11-19T21:13:43;56.33;51.67;34.00
55076;PMS7003;40971;44.702;11.030;2023-11-19T21:23:48;59.50;53.00;37.50
55076;PMS7003;40971;44.702;11.030;2023-11-19T21:33:49;39.00;39.00;28.00
55076;PMS7003;40971;44.702;11.030;2023-11-19T21:43:51;54.33;49.00;34.00
55076;PMS7003;40971;44.702;11.030;2023-11-19T21:53:53;69.00;60.00;39.00
55076;PMS7003;40971;44.702;11.030;2023-11-19T22:03:57;49.75;47.75;33.38
55076;PMS7003;40971;44.702;11.030;2023-11-19T22:14:00;40.60;40.60;30.20
55076;PMS7003;40971;44.702;11.030;2023-11-19T22:24:04;42.13;42.13;30.88
55076;PMS7003;40971;44.702;11.030;2023-11-19T22:34:06;53.50;50.00;36.00
55076;PMS7003;40971;44.702;11.030;2023-11-19T22:44:08;47.00;46.00;31.67
55076;PMS7003;40971;44.702;11.030;2023-11-19T22:54:10;50.50;48.50;35.00
55076;PMS7003;40971;44.702;11.030;2023-11-19T23:04:12;57.50;52.00;34.00
55076;PMS7003;40971;44.702;11.030;2023-11-19T23:14:14;54.33;49.00;34.00
55076;PMS7003;40971;44.702;11.030;2023-11-19T23:24:16;53.33;48.67;33.00
55076;PMS7003;40971;44.702;11.030;2023-11-19T23:34:18;45.50;45.00;31.00
55076;PMS7003;40971;44.702;11.030;2023-11-19T23:44:21;55.33;50.00;34.67
55076;PMS7003;40971;44.702;11.030;2023-11-19T23:54:22;65.00;57.00;40.00
